createdAt,value
2023-03-23T00:00:25.703Z,4.45
2023-03-23T00:01:25.779Z,4.02
2023-03-23T00:02:25.964Z,4.94
2023-03-23T00:03:25.970Z,4.24
2023-03-23T00:04:26.070Z,4.58
2023-03-23T00:05:26.099Z,4.23
2023-03-23T00:06:26.175Z,4.31
2023-03-23T00:07:26.235Z,4.51
2023-03-23T00:08:26.302Z,4.06
2023-03-23T00:09:26.410Z,4.51
2023-03-23T00:10:26.463Z,4.38
2023-03-23T00:11:26.557Z,4.27
2023-03-23T00:12:26.616Z,4.12
2023-03-23T00:13:27.689Z,4.09
2023-03-23T00:14:26.677Z,4.45
2023-03-23T00:15:26.736Z,4.37
2023-03-23T00:16:26.755Z,4.04
2023-03-23T00:17:26.815Z,4.18
2023-03-23T00:18:26.788Z,4.09
2023-03-23T00:19:27.753Z,4.29
2023-03-23T00:20:26.878Z,4.30
2023-03-23T00:21:26.908Z,4.23
2023-03-23T00:22:26.926Z,4.07
2023-03-23T00:23:26.970Z,4.18
2023-03-23T00:24:26.979Z,4.20
2023-03-23T00:25:27.054Z,4.50
2023-03-23T00:26:27.061Z,4.16
2023-03-23T00:27:27.147Z,3.87
2023-03-23T00:28:27.172Z,4.14
2023-03-23T00:29:27.253Z,4.40
2023-03-23T00:30:27.341Z,4.23
2023-03-23T00:31:27.376Z,3.91
2023-03-23T00:32:27.461Z,4.64
2023-03-23T00:33:27.477Z,4.20
2023-03-23T00:34:27.596Z,4.10
2023-03-23T00:35:27.607Z,4.03
2023-03-23T00:36:27.660Z,4.00
2023-03-23T00:37:27.729Z,4.48
2023-03-23T00:38:27.754Z,3.79
2023-03-23T00:39:27.845Z,4.18
2023-03-23T00:40:27.893Z,4.18
2023-03-23T00:41:27.939Z,3.71
2023-03-23T00:42:27.968Z,3.78
2023-03-23T00:43:28.018Z,4.28
2023-03-23T00:44:28.109Z,4.10
2023-03-23T00:45:28.174Z,4.46
2023-03-23T00:46:28.196Z,3.78
2023-03-23T00:47:28.270Z,3.68
2023-03-23T00:48:28.330Z,3.77
2023-03-23T00:49:28.379Z,3.76
2023-03-23T00:50:33.806Z,3.63
2023-03-23T00:51:29.447Z,3.79
2023-03-23T00:52:28.466Z,3.91
2023-03-23T00:53:28.484Z,4.22
2023-03-23T00:54:28.514Z,3.67
2023-03-23T01:01:28.690Z,3.62
2023-03-23T01:02:28.712Z,3.91
2023-03-23T01:03:28.727Z,3.91
2023-03-23T01:04:28.781Z,4.16
2023-03-23T01:05:28.825Z,3.55
2023-03-23T01:06:28.906Z,3.45
2023-03-23T01:07:28.944Z,3.90
2023-03-23T01:08:28.987Z,3.89
2023-03-23T01:09:29.057Z,3.98
2023-03-23T01:10:29.147Z,3.96
2023-03-23T01:11:29.206Z,3.64
2023-03-23T01:12:29.312Z,3.88
2023-03-23T01:13:29.367Z,4.25
2023-03-23T01:14:29.443Z,3.80
2023-03-23T01:15:29.478Z,3.54
2023-03-23T01:16:29.578Z,3.71
2023-03-23T01:17:29.671Z,3.90
2023-03-23T01:18:33.968Z,3.88
2023-03-23T01:19:29.732Z,3.67
2023-03-23T01:20:29.758Z,3.72
2023-03-23T01:21:29.776Z,4.12
2023-03-23T01:22:29.836Z,3.24
2023-03-23T01:23:29.792Z,3.99
2023-03-23T01:24:29.806Z,3.61
2023-03-23T01:25:29.822Z,3.63
2023-03-23T01:26:29.863Z,3.95
2023-03-23T01:31:29.969Z,3.46
2023-03-23T01:32:29.966Z,3.36
2023-03-23T01:33:29.994Z,3.47
2023-03-23T01:34:30.039Z,3.95
2023-03-23T01:35:30.076Z,3.83
2023-03-23T01:36:30.086Z,4.02
2023-03-23T01:37:30.138Z,3.86
2023-03-23T01:53:31.004Z,4.63
2023-03-23T01:54:31.013Z,4.99
2023-03-23T01:55:31.097Z,5.06
2023-03-23T01:56:31.142Z,4.64
2023-03-23T01:57:31.186Z,5.25
2023-03-23T01:58:31.275Z,4.64
2023-03-23T01:59:31.314Z,5.38
2023-03-23T02:00:31.392Z,4.61
2023-03-23T02:01:31.451Z,4.90
2023-03-23T02:02:31.516Z,4.95
2023-03-23T02:03:31.587Z,4.34
2023-03-23T02:04:31.636Z,4.75
2023-03-23T02:05:31.720Z,4.83
2023-03-23T02:10:31.855Z,4.33
2023-03-23T02:11:31.929Z,4.75
2023-03-23T02:12:31.977Z,4.57
2023-03-23T02:13:32.023Z,4.51
2023-03-23T02:14:32.095Z,4.31
2023-03-23T02:15:32.209Z,4.60
2023-03-23T02:16:32.183Z,4.74
2023-03-23T02:17:32.268Z,4.57
2023-03-23T02:18:32.292Z,4.34
2023-03-23T02:19:32.347Z,4.95
2023-03-23T02:20:32.417Z,4.59
2023-03-23T02:21:32.452Z,4.62
2023-03-23T02:22:32.534Z,4.89
2023-03-23T02:23:32.549Z,4.38
2023-03-23T02:24:32.618Z,4.56
2023-03-23T02:25:32.648Z,4.43
2023-03-23T02:26:32.768Z,4.11
2023-03-23T02:27:32.756Z,4.33
2023-03-23T02:28:32.832Z,4.31
2023-03-23T02:29:32.917Z,4.57
2023-03-23T02:30:32.931Z,4.70
2023-03-23T02:31:32.982Z,3.87
2023-03-23T02:32:33.007Z,4.46
2023-03-23T02:33:33.075Z,4.40
2023-03-23T02:34:33.087Z,4.52
2023-03-23T02:35:33.212Z,4.47
2023-03-23T02:36:33.189Z,4.84
2023-03-23T02:37:33.255Z,4.22
2023-03-23T02:38:33.283Z,3.58
2023-03-23T02:39:33.368Z,4.03
2023-03-23T02:40:33.441Z,4.48
2023-03-23T02:41:33.428Z,4.24
2023-03-23T02:42:33.482Z,3.83
2023-03-23T02:43:35.246Z,4.08
2023-03-23T02:44:33.586Z,4.19
2023-03-23T02:45:33.615Z,4.01
2023-03-23T02:46:33.680Z,3.99
2023-03-23T02:47:33.734Z,4.02
2023-03-23T02:48:33.756Z,4.32
2023-03-23T02:49:33.804Z,4.43
2023-03-23T02:50:33.851Z,4.20
2023-03-23T02:51:33.946Z,3.72
2023-03-23T02:52:34.942Z,4.30
2023-03-23T02:53:33.987Z,3.84
2023-03-23T02:54:33.974Z,3.87
2023-03-23T02:55:34.020Z,4.25
2023-03-23T02:56:34.024Z,4.73
2023-03-23T02:57:40.298Z,4.55
2023-03-23T02:58:35.104Z,3.84
2023-03-23T02:59:34.109Z,4.38
2023-03-23T03:00:34.129Z,4.16
2023-03-23T03:01:34.150Z,4.89
2023-03-23T03:02:34.177Z,4.47
2023-03-23T03:07:34.321Z,3.85
2023-03-23T03:08:34.332Z,3.82
2023-03-23T03:09:34.393Z,3.87
2023-03-23T03:10:34.392Z,4.15
2023-03-23T03:11:34.401Z,3.98
2023-03-23T03:12:34.484Z,3.86
2023-03-23T03:13:34.534Z,3.73
2023-03-23T03:14:34.563Z,3.87
2023-03-23T03:15:34.620Z,3.51
2023-03-23T03:16:34.681Z,3.84
2023-03-23T03:17:34.701Z,3.88
2023-03-23T03:18:34.785Z,4.15
2023-03-23T03:19:34.828Z,4.48
2023-03-23T03:20:34.880Z,4.38
2023-03-23T03:21:34.911Z,4.03
2023-03-23T03:22:34.978Z,3.97
2023-03-23T03:23:35.035Z,3.69
2023-03-23T03:24:35.074Z,3.85
2023-03-23T03:25:35.115Z,3.43
2023-03-23T03:26:35.173Z,3.76
2023-03-23T03:27:35.225Z,4.31
2023-03-23T03:28:35.236Z,4.25
2023-03-23T03:29:35.270Z,3.55
2023-03-23T03:30:35.343Z,4.20
2023-03-23T03:31:35.403Z,3.70
2023-03-23T03:32:35.430Z,3.95
2023-03-23T03:33:35.478Z,3.84
2023-03-23T03:34:35.530Z,3.77
2023-03-23T03:46:36.127Z,4.17
2023-03-23T03:47:36.171Z,3.39
2023-03-23T03:48:36.229Z,3.93
2023-03-23T03:49:36.304Z,4.18
2023-03-23T03:50:36.343Z,3.26
2023-03-23T03:51:36.394Z,3.02
2023-03-23T03:52:36.428Z,4.26
2023-03-23T03:53:36.514Z,3.49
2023-03-23T03:54:36.545Z,3.46
2023-03-23T03:55:36.565Z,3.74
2023-03-23T03:56:36.596Z,3.53
2023-03-23T03:57:36.655Z,3.59
2023-03-23T03:58:36.719Z,3.81
2023-03-23T03:59:36.783Z,3.42
2023-03-23T04:00:36.798Z,3.25
2023-03-23T04:01:36.833Z,3.91
2023-03-23T04:02:36.838Z,3.23
2023-03-23T04:03:36.900Z,3.36
2023-03-23T04:04:36.954Z,3.88
2023-03-23T04:05:37.001Z,3.39
2023-03-23T04:06:37.002Z,3.40
2023-03-23T04:07:37.079Z,3.65
2023-03-23T04:08:37.074Z,3.68
2023-03-23T04:09:37.112Z,3.70
2023-03-23T04:10:37.113Z,4.11
2023-03-23T04:11:37.124Z,3.47
2023-03-23T04:12:37.148Z,3.20
2023-03-23T04:13:37.168Z,3.56
2023-03-23T04:14:37.190Z,3.34
2023-03-23T04:15:37.211Z,3.57
2023-03-23T04:20:37.270Z,3.43
2023-03-23T04:21:37.255Z,3.34
2023-03-23T04:22:37.283Z,4.06
2023-03-23T04:23:37.279Z,4.00
2023-03-23T04:24:56.264Z,3.81
2023-03-23T04:25:38.337Z,3.84
2023-03-23T04:26:37.360Z,3.77
2023-03-23T04:27:37.383Z,3.35
2023-03-23T04:28:37.401Z,3.96
2023-03-23T04:29:37.391Z,4.09
2023-03-23T04:30:37.473Z,4.27
2023-03-23T04:36:56.055Z,3.71
2023-03-23T04:37:38.528Z,3.93
2023-03-23T04:38:37.560Z,3.61
2023-03-23T04:39:37.570Z,3.28
2023-03-23T04:42:37.615Z,3.75
2023-03-23T04:43:37.631Z,3.51
2023-03-23T04:44:37.654Z,3.38
2023-03-23T04:45:37.652Z,3.46
2023-03-23T04:46:37.648Z,3.99
2023-03-23T04:47:37.675Z,4.04
2023-03-23T04:48:37.728Z,3.76
2023-03-23T04:49:37.813Z,3.92
2023-03-23T04:50:37.877Z,3.27
2023-03-23T04:51:37.957Z,3.51
2023-03-23T04:52:38.027Z,3.83
2023-03-23T04:53:38.169Z,4.17
2023-03-23T04:54:38.133Z,3.94
2023-03-23T04:55:38.210Z,4.15
2023-03-23T04:56:38.277Z,3.78
2023-03-23T04:57:38.364Z,4.19
2023-03-23T04:58:38.427Z,3.52
2023-03-23T04:59:38.449Z,4.24
2023-03-23T05:00:38.581Z,4.15
2023-03-23T05:01:38.612Z,4.06
2023-03-23T05:02:38.695Z,4.20
2023-03-23T05:03:38.793Z,3.96
2023-03-23T05:04:38.871Z,4.34
2023-03-23T05:05:38.937Z,4.71
2023-03-23T05:06:38.986Z,3.65
2023-03-23T05:07:39.027Z,3.60
2023-03-23T05:08:39.113Z,3.72
2023-03-23T05:09:39.238Z,3.42
2023-03-23T05:10:39.220Z,4.08
2023-03-23T05:11:39.296Z,4.22
2023-03-23T05:12:39.408Z,4.33
2023-03-23T05:13:39.399Z,4.34
2023-03-23T05:14:39.492Z,3.67
2023-03-23T05:15:39.964Z,3.85
2023-03-23T05:16:39.596Z,4.10
2023-03-23T05:17:39.671Z,3.42
2023-03-23T05:18:39.721Z,3.36
2023-03-23T05:19:39.840Z,3.43
2023-03-23T05:20:39.886Z,4.24
2023-03-23T05:21:39.944Z,3.88
2023-03-23T05:22:39.966Z,4.12
2023-03-23T05:23:40.034Z,3.57
2023-03-23T05:24:40.207Z,3.63
2023-03-23T05:27:40.294Z,4.24
2023-03-23T05:28:40.322Z,3.76
2023-03-23T05:29:40.416Z,3.40
2023-03-23T05:30:40.452Z,3.71
2023-03-23T05:31:40.503Z,4.11
2023-03-23T05:32:40.580Z,3.59
2023-03-23T05:33:40.664Z,4.10
2023-03-23T05:34:40.718Z,3.95
2023-03-23T05:35:41.143Z,4.04
2023-03-23T05:36:40.875Z,4.14
2023-03-23T05:42:41.124Z,3.44
2023-03-23T05:47:41.894Z,3.58
2023-03-23T05:48:41.422Z,4.20
2023-03-23T05:49:41.469Z,3.73
2023-03-23T05:50:41.557Z,4.32
2023-03-23T05:51:41.613Z,4.40
2023-03-23T05:52:41.646Z,4.03
2023-03-23T05:59:42.893Z,4.84
2023-03-23T06:00:48.751Z,4.86
2023-03-23T06:01:41.752Z,4.71
2023-03-23T06:02:42.768Z,4.42
2023-03-23T06:07:41.885Z,4.60
2023-03-23T06:08:41.941Z,4.09
2023-03-23T06:10:41.968Z,4.53
2023-03-23T06:11:41.966Z,4.39
2023-03-23T06:12:41.987Z,4.74
2023-03-23T06:13:42.003Z,4.19
2023-03-23T06:14:42.045Z,5.15
2023-03-23T06:16:42.092Z,5.03
2023-03-23T06:17:42.153Z,4.69
2023-03-23T06:18:42.165Z,4.81
2023-03-23T06:19:42.180Z,5.09
2023-03-23T06:20:42.220Z,4.45
2023-03-23T06:21:42.184Z,4.82
2023-03-23T06:22:42.196Z,5.04
2023-03-23T06:23:42.240Z,4.38
2023-03-23T06:24:42.308Z,4.62
2023-03-23T06:25:42.593Z,5.25
2023-03-23T06:26:42.427Z,4.78
2023-03-23T06:27:43.177Z,4.83
2023-03-23T06:31:42.789Z,4.91
2023-03-23T06:32:42.874Z,5.04
2023-03-23T06:33:42.976Z,4.42
2023-03-23T06:34:43.213Z,4.70
2023-03-23T06:35:43.280Z,4.84
2023-03-23T06:36:43.141Z,4.81
2023-03-23T06:37:43.221Z,5.39
2023-03-23T06:38:43.322Z,4.61
2023-03-23T06:39:43.782Z,5.18
2023-03-23T06:41:43.505Z,5.16
2023-03-23T06:42:43.623Z,4.98
2023-03-23T06:43:43.680Z,4.97
2023-03-23T06:44:43.736Z,4.71
2023-03-23T06:45:51.238Z,5.32
2023-03-23T06:46:43.785Z,5.14
2023-03-23T06:47:43.860Z,4.70
2023-03-23T06:48:43.819Z,5.47
2023-03-23T06:49:43.855Z,4.83
2023-03-23T06:52:43.917Z,4.47
2023-03-23T06:53:43.944Z,4.56
2023-03-23T06:54:44.730Z,4.77
2023-03-23T06:55:44.024Z,4.73
2023-03-23T06:57:44.022Z,4.75
2023-03-23T06:58:44.061Z,5.30
2023-03-23T07:00:44.049Z,4.83
2023-03-23T07:01:44.044Z,4.53
2023-03-23T07:02:44.048Z,4.09
2023-03-23T07:03:44.123Z,4.76
2023-03-23T07:04:45.109Z,4.79
2023-03-23T07:09:44.128Z,5.11
2023-03-23T07:10:44.286Z,4.14
2023-03-23T07:11:44.149Z,4.85
2023-03-23T07:12:44.169Z,4.26
2023-03-23T07:13:44.187Z,4.65
2023-03-23T07:14:44.189Z,4.57
2023-03-23T07:15:44.217Z,5.06
2023-03-23T07:16:44.244Z,4.73
2023-03-23T07:17:44.319Z,4.88
2023-03-23T07:18:44.327Z,4.53
2023-03-23T07:19:44.377Z,4.65
2023-03-23T07:22:44.517Z,4.65
2023-03-23T07:23:44.564Z,4.76
2023-03-23T07:24:44.608Z,4.58
2023-03-23T07:25:44.662Z,4.43
2023-03-23T07:26:44.693Z,4.30
2023-03-23T07:27:44.760Z,5.49
2023-03-23T07:28:44.809Z,5.15
2023-03-23T07:29:44.963Z,4.90
2023-03-23T07:31:44.968Z,5.03
2023-03-23T07:32:45.037Z,6.04
2023-03-23T07:33:45.079Z,4.62
2023-03-23T07:34:45.159Z,5.03
2023-03-23T07:35:45.620Z,5.14
2023-03-23T07:41:46.274Z,4.78
2023-03-23T07:45:45.737Z,5.16
2023-03-23T07:46:45.470Z,4.88
2023-03-23T07:47:45.497Z,5.02
2023-03-23T07:48:45.497Z,4.82
2023-03-23T07:49:45.489Z,5.36
2023-03-23T07:51:45.517Z,5.23
2023-03-23T07:52:45.517Z,5.75
2023-03-23T07:53:45.525Z,5.30
2023-03-23T07:54:45.526Z,5.25
2023-03-23T07:55:45.586Z,5.66
2023-03-23T07:57:45.608Z,5.57
2023-03-23T07:58:45.623Z,5.30
2023-03-23T07:59:45.594Z,5.18
2023-03-23T08:00:45.689Z,4.92
2023-03-23T08:03:47.317Z,5.34
2023-03-23T08:04:45.666Z,5.43
2023-03-23T08:05:45.733Z,5.08
2023-03-23T08:08:45.735Z,5.01
2023-03-23T08:09:45.737Z,4.75
2023-03-23T08:10:45.759Z,5.26
2023-03-23T08:11:46.284Z,5.30
2023-03-23T08:15:45.985Z,4.50
2023-03-23T08:16:46.028Z,5.77
2023-03-23T08:17:46.054Z,5.13
2023-03-23T08:18:46.167Z,5.38
2023-03-23T08:19:46.216Z,5.47
2023-03-23T08:20:46.326Z,5.18
2023-03-23T08:21:46.342Z,5.32
2023-03-23T08:22:53.290Z,6.02
2023-03-23T08:24:46.390Z,5.24
2023-03-23T08:25:46.451Z,5.18
2023-03-23T08:26:46.794Z,5.07
2023-03-23T08:33:46.578Z,6.69
2023-03-23T08:34:46.649Z,6.26
2023-03-23T08:35:46.712Z,5.26
2023-03-23T08:36:46.750Z,6.05
2023-03-23T08:37:46.779Z,5.51
2023-03-23T08:38:46.878Z,5.65
2023-03-23T08:39:46.942Z,5.54
2023-03-23T08:40:46.971Z,5.12
2023-03-23T08:41:47.284Z,4.92
2023-03-23T08:44:47.132Z,4.77
2023-03-23T08:45:47.181Z,5.05
2023-03-23T08:47:48.364Z,5.32
2023-03-23T08:51:47.307Z,5.51
2023-03-23T08:52:47.330Z,5.74
2023-03-23T08:53:47.393Z,5.71
2023-03-23T08:54:47.419Z,6.77
2023-03-23T08:55:47.417Z,5.84
2023-03-23T08:56:47.541Z,6.07
2023-03-23T09:01:47.796Z,5.79
2023-03-23T09:05:47.733Z,6.02
2023-03-23T09:06:47.772Z,5.55
2023-03-23T09:07:47.803Z,5.57
2023-03-23T09:08:47.838Z,5.83
2023-03-23T09:09:47.842Z,5.68
2023-03-23T09:11:47.938Z,5.96
2023-03-23T09:12:47.944Z,5.17
2023-03-23T09:13:47.969Z,5.53
2023-03-23T09:14:48.053Z,6.08
2023-03-23T09:15:55.159Z,5.48
2023-03-23T09:16:49.115Z,4.96
2023-03-23T09:19:48.158Z,4.65
2023-03-23T09:20:49.232Z,5.52
2023-03-23T09:25:48.310Z,5.90
2023-03-23T09:26:48.365Z,6.20
2023-03-23T09:27:48.383Z,5.99
2023-03-23T09:28:48.416Z,6.28
2023-03-23T09:29:48.431Z,6.43
2023-03-23T09:30:53.361Z,5.76
2023-03-23T09:31:49.770Z,6.79
2023-03-23T09:34:48.577Z,5.53
2023-03-23T09:35:48.679Z,5.29
2023-03-23T09:36:48.646Z,5.26
2023-03-23T09:37:48.650Z,4.87
2023-03-23T09:38:48.661Z,4.72
2023-03-23T09:39:48.672Z,4.86
2023-03-23T09:40:49.683Z,5.50
2023-03-23T09:41:48.736Z,5.50
2023-03-23T09:43:48.730Z,5.76
2023-03-23T09:44:48.793Z,6.12
2023-03-23T09:45:48.789Z,5.79
2023-03-23T09:46:48.801Z,5.60
2023-03-23T09:47:48.818Z,5.57
2023-03-23T09:48:48.872Z,5.54
2023-03-23T09:51:49.302Z,5.07
2023-03-23T09:52:49.018Z,5.94
2023-03-23T09:53:49.066Z,6.04
2023-03-23T09:54:49.198Z,5.74
2023-03-23T09:55:49.175Z,4.63
2023-03-23T09:56:49.237Z,5.78
2023-03-23T09:57:49.294Z,6.02
2023-03-23T09:58:49.350Z,5.53
2023-03-23T09:59:49.422Z,5.70
2023-03-23T10:00:49.591Z,5.45
2023-03-23T10:01:49.847Z,5.75
2023-03-23T10:02:49.612Z,5.18
2023-03-23T10:03:49.688Z,6.18
2023-03-23T10:04:49.730Z,4.83
2023-03-23T10:05:49.829Z,6.60
2023-03-23T10:06:49.858Z,5.97
2023-03-23T10:07:49.933Z,5.12
2023-03-23T10:08:57.153Z,5.05
2023-03-23T10:09:51.010Z,5.59
2023-03-23T10:10:50.020Z,4.60
2023-03-23T10:11:50.065Z,5.48
2023-03-23T10:15:50.084Z,5.46
2023-03-23T10:16:50.097Z,5.78
2023-03-23T10:18:50.075Z,5.46
2023-03-23T10:19:50.108Z,5.02
2023-03-23T10:20:50.114Z,5.70
2023-03-23T10:21:50.327Z,4.68
2023-03-23T10:25:50.276Z,5.18
2023-03-23T10:26:50.334Z,5.29
2023-03-23T10:27:50.303Z,5.34
2023-03-23T10:28:50.379Z,5.79
2023-03-23T10:29:50.396Z,6.21
2023-03-23T10:30:50.422Z,6.41
2023-03-23T10:31:50.487Z,6.41
2023-03-23T10:32:50.508Z,6.52
2023-03-23T10:33:50.560Z,6.64
2023-03-23T10:34:50.588Z,6.38
2023-03-23T10:35:50.734Z,6.00
2023-03-23T10:36:50.840Z,6.51
2023-03-23T10:40:50.931Z,6.38
2023-03-23T10:41:51.365Z,5.43
2023-03-23T10:42:51.030Z,6.63
2023-03-23T10:43:51.104Z,5.87
2023-03-23T10:44:51.104Z,5.81
2023-03-23T10:46:00.257Z,6.14
2023-03-23T10:46:52.446Z,5.49
2023-03-23T10:48:51.182Z,6.15
2023-03-23T10:49:51.245Z,6.18
2023-03-23T10:50:51.209Z,7.16
2023-03-23T10:51:51.352Z,7.12
2023-03-23T10:55:51.288Z,7.20
2023-03-23T10:57:01.811Z,7.70
2023-03-23T10:57:52.276Z,7.44
2023-03-23T10:58:51.366Z,8.38
2023-03-23T11:01:51.373Z,7.40
2023-03-23T11:03:51.378Z,8.48
2023-03-23T11:04:51.414Z,6.39
2023-03-23T11:05:51.429Z,6.87
2023-03-23T11:06:51.462Z,7.41
2023-03-23T11:07:51.477Z,6.68
2023-03-23T11:08:51.476Z,7.58
2023-03-23T11:09:51.505Z,6.95
2023-03-23T11:10:52.518Z,5.62
2023-03-23T11:11:53.332Z,6.19
2023-03-23T11:12:51.679Z,6.40
2023-03-23T11:13:51.676Z,6.00
2023-03-23T11:14:51.669Z,6.83
2023-03-23T11:15:51.680Z,6.86
2023-03-23T11:16:51.826Z,5.17
2023-03-23T11:18:51.752Z,6.36
2023-03-23T11:19:51.752Z,5.96
2023-03-23T11:20:51.766Z,6.82
2023-03-23T11:21:51.844Z,7.00
2023-03-23T11:23:57.878Z,6.78
2023-03-23T11:24:52.848Z,6.74
2023-03-23T11:25:51.858Z,7.76
2023-03-23T11:26:58.785Z,6.92
2023-03-23T11:27:52.913Z,6.41
2023-03-23T11:28:51.916Z,6.66
2023-03-23T11:29:58.185Z,6.72
2023-03-23T11:30:52.962Z,6.91
2023-03-23T11:34:52.019Z,7.49
2023-03-23T11:35:52.018Z,7.05
2023-03-23T11:36:52.023Z,6.75
2023-03-23T11:37:52.357Z,6.44
2023-03-23T11:39:52.143Z,6.50
2023-03-23T11:43:52.134Z,7.10
2023-03-23T11:44:52.212Z,7.71
2023-03-23T11:45:52.340Z,7.38
2023-03-23T11:46:52.356Z,7.84
2023-03-23T11:47:52.436Z,7.33
2023-03-23T11:48:52.504Z,8.52
2023-03-23T11:49:52.588Z,8.34
2023-03-23T11:50:52.623Z,8.39
2023-03-23T11:51:52.683Z,9.31
2023-03-23T11:52:52.864Z,8.30
2023-03-23T11:57:53.133Z,8.37
2023-03-23T11:58:53.225Z,8.17
2023-03-23T11:59:53.315Z,8.08
2023-03-23T12:00:53.389Z,8.22
2023-03-23T12:01:53.446Z,8.41
2023-03-23T12:02:53.514Z,8.56
2023-03-23T12:03:53.582Z,8.40
2023-03-23T12:04:53.674Z,8.28
2023-03-23T12:05:53.749Z,7.91
2023-03-23T12:06:53.841Z,8.05
2023-03-23T12:07:53.926Z,8.30
2023-03-23T12:08:54.030Z,7.57
2023-03-23T12:09:54.079Z,7.58
2023-03-23T12:10:57.107Z,8.39
2023-03-23T12:11:54.158Z,8.55
2023-03-23T12:12:54.409Z,7.78
2023-03-23T12:15:54.240Z,8.00
2023-03-23T12:16:54.297Z,7.35
2023-03-23T12:17:54.343Z,8.10
2023-03-23T12:18:54.468Z,7.59
2023-03-23T12:19:54.359Z,8.17
2023-03-23T12:20:54.424Z,7.14
2023-03-23T12:21:54.403Z,7.07
2023-03-23T12:22:54.434Z,6.75
2023-03-23T12:25:54.490Z,6.42
2023-03-23T12:26:54.492Z,7.46
2023-03-23T12:27:54.883Z,6.56
2023-03-23T12:28:54.583Z,7.85
2023-03-23T12:29:54.555Z,7.39
2023-03-23T12:30:54.763Z,7.35
2023-03-23T12:31:54.627Z,7.44
2023-03-23T12:32:54.867Z,7.04
2023-03-23T12:33:54.610Z,7.15
2023-03-23T12:34:54.654Z,7.10
2023-03-23T12:35:54.675Z,7.78
2023-03-23T12:36:54.679Z,7.28
2023-03-23T12:37:54.848Z,6.76
2023-03-23T12:45:54.798Z,7.24
2023-03-23T12:46:54.844Z,7.54
2023-03-23T12:47:54.861Z,7.40
2023-03-23T12:48:54.865Z,7.19
2023-03-23T12:49:54.876Z,7.23
2023-03-23T12:50:54.882Z,7.48
2023-03-23T12:51:55.917Z,7.14
2023-03-23T12:52:54.953Z,7.15
2023-03-23T12:53:55.015Z,6.80
2023-03-23T12:54:55.110Z,6.72
2023-03-23T12:55:55.123Z,7.17
2023-03-23T12:56:55.229Z,7.05
2023-03-23T12:57:55.287Z,6.60
2023-03-23T12:58:55.335Z,7.52
2023-03-23T12:59:55.369Z,7.47
2023-03-23T13:00:55.477Z,6.69
2023-03-23T13:01:55.643Z,6.12
2023-03-23T13:03:55.765Z,6.44
2023-03-23T13:08:56.045Z,6.89
2023-03-23T13:09:57.423Z,6.59
2023-03-23T13:10:56.143Z,6.47
2023-03-23T13:11:56.254Z,7.50
2023-03-23T13:12:56.320Z,6.95
2023-03-23T13:13:56.382Z,6.92
2023-03-23T13:14:56.446Z,7.00
2023-03-23T13:15:56.483Z,6.51
2023-03-23T13:16:56.582Z,6.65
2023-03-23T13:17:56.659Z,6.64
2023-03-23T13:18:56.722Z,6.57
2023-03-23T13:19:56.782Z,6.18
2023-03-23T13:20:56.848Z,6.61
2023-03-23T13:21:56.897Z,6.31
2023-03-23T13:22:56.933Z,6.66
2023-03-23T13:23:57.013Z,5.76
2023-03-23T13:24:57.047Z,6.20
2023-03-23T13:25:57.110Z,6.29
2023-03-23T13:26:57.200Z,6.75
2023-03-23T13:27:57.232Z,6.22
2023-03-23T13:28:57.305Z,6.87
2023-03-23T13:34:57.384Z,6.23
2023-03-23T13:35:57.421Z,5.79
2023-03-23T13:36:57.352Z,6.07
2023-03-23T13:37:57.367Z,6.50
2023-03-23T13:38:57.379Z,6.16
2023-03-23T13:39:57.395Z,6.14
2023-03-23T13:40:57.428Z,5.62
2023-03-23T13:41:57.439Z,6.10
2023-03-23T13:43:57.484Z,5.86
2023-03-23T13:44:58.391Z,6.06
2023-03-23T13:45:57.501Z,5.50
2023-03-23T13:46:57.545Z,5.82
2023-03-23T13:48:57.699Z,6.34
2023-03-23T13:49:57.559Z,5.68
2023-03-23T13:50:57.616Z,6.06
2023-03-23T13:51:57.625Z,7.13
2023-03-23T13:52:57.688Z,6.24
2023-03-23T13:53:57.687Z,6.43
2023-03-23T13:57:57.713Z,6.44
2023-03-23T14:02:57.818Z,6.90
2023-03-23T14:03:57.827Z,5.93
2023-03-23T14:04:57.824Z,6.43
2023-03-23T14:05:57.876Z,6.44
2023-03-23T14:06:57.882Z,6.42
2023-03-23T14:11:57.946Z,6.90
2023-03-23T14:12:58.014Z,6.69
2023-03-23T14:13:57.996Z,6.43
2023-03-23T14:19:58.144Z,6.55
2023-03-23T14:20:58.187Z,6.41
2023-03-23T14:21:58.261Z,7.23
2023-03-23T14:22:58.322Z,6.62
2023-03-23T14:23:58.348Z,6.98
2023-03-23T14:24:58.405Z,6.84
2023-03-23T14:25:58.453Z,6.32
2023-03-23T14:26:58.497Z,6.03
2023-03-23T14:27:58.561Z,6.63
2023-03-23T14:28:58.593Z,7.05
2023-03-23T14:29:58.697Z,6.49
2023-03-23T14:30:58.707Z,6.00
2023-03-23T14:31:58.735Z,6.89
2023-03-23T14:32:58.814Z,6.87
2023-03-23T14:33:58.863Z,6.38
2023-03-23T14:34:58.911Z,7.16
2023-03-23T14:35:58.951Z,7.46
2023-03-23T14:36:59.024Z,6.88
2023-03-23T14:37:59.081Z,6.88
2023-03-23T14:38:59.153Z,7.07
2023-03-23T14:39:59.177Z,6.10
2023-03-23T14:40:59.235Z,6.17
2023-03-23T14:41:59.309Z,6.47
2023-03-23T14:42:59.377Z,6.69
2023-03-23T14:43:59.431Z,6.92
2023-03-23T14:44:59.455Z,6.75
2023-03-23T14:45:59.530Z,6.79
2023-03-23T14:46:59.541Z,6.48
2023-03-23T14:47:59.631Z,7.52
2023-03-23T14:48:59.687Z,6.92
2023-03-23T14:49:59.701Z,7.30
2023-03-23T14:50:59.797Z,7.10
2023-03-23T14:51:59.886Z,6.52
2023-03-23T14:52:59.892Z,6.72
2023-03-23T14:53:59.968Z,6.60
2023-03-23T14:55:00.028Z,7.67
2023-03-23T14:56:00.044Z,7.25
2023-03-23T14:57:00.099Z,7.72
2023-03-23T14:58:00.157Z,7.58
2023-03-23T14:59:00.211Z,6.73
2023-03-23T15:00:00.324Z,7.35
2023-03-23T15:01:00.355Z,7.10
2023-03-23T15:02:00.445Z,7.15
2023-03-23T15:03:00.447Z,7.21
2023-03-23T15:04:00.509Z,7.43
2023-03-23T15:05:00.569Z,7.14
2023-03-23T15:06:00.632Z,7.35
2023-03-23T15:07:00.666Z,6.82
2023-03-23T15:08:00.748Z,6.71
2023-03-23T15:09:00.786Z,6.65
2023-03-23T15:10:00.832Z,6.04
2023-03-23T15:11:00.916Z,6.33
2023-03-23T15:12:01.012Z,6.94
2023-03-23T15:13:01.061Z,8.10
2023-03-23T15:14:01.132Z,6.84
2023-03-23T15:15:01.201Z,7.62
2023-03-23T15:16:01.214Z,6.85
2023-03-23T15:17:01.255Z,7.29
2023-03-23T15:18:01.363Z,7.14
2023-03-23T15:19:01.430Z,7.35
2023-03-23T15:20:01.492Z,7.09
2023-03-23T15:21:01.520Z,6.97
2023-03-23T15:22:01.609Z,6.68
2023-03-23T15:23:01.648Z,6.92
2023-03-23T15:24:01.917Z,7.23
2023-03-23T15:25:01.786Z,7.17
2023-03-23T15:26:01.831Z,7.17
2023-03-23T15:27:01.875Z,7.09
2023-03-23T15:28:01.950Z,7.09
2023-03-23T15:29:02.012Z,7.59
2023-03-23T15:30:02.091Z,8.04
2023-03-23T15:31:03.306Z,7.16
2023-03-23T15:32:02.222Z,7.44
2023-03-23T15:33:02.258Z,7.84
2023-03-23T15:34:02.343Z,7.73
2023-03-23T15:35:12.580Z,7.78
2023-03-23T15:36:03.435Z,8.44
2023-03-23T15:38:03.453Z,6.85
2023-03-23T15:39:02.483Z,7.88
2023-03-23T15:41:02.556Z,8.05
2023-03-23T15:42:02.573Z,7.88
2023-03-23T15:43:02.579Z,7.83
2023-03-23T15:44:02.579Z,7.45
2023-03-23T15:45:02.593Z,7.06
2023-03-23T15:46:02.608Z,7.88
2023-03-23T15:47:07.836Z,7.12
2023-03-23T15:48:03.673Z,8.00
2023-03-23T15:49:02.711Z,7.11
2023-03-23T15:50:02.696Z,8.45
2023-03-23T15:51:02.739Z,7.85
2023-03-23T15:52:02.755Z,7.44
2023-03-23T15:53:02.788Z,7.62
2023-03-23T15:54:05.664Z,7.82
2023-03-23T15:55:03.781Z,8.32
2023-03-23T15:58:02.869Z,7.83
2023-03-23T15:59:02.892Z,8.16
2023-03-23T16:00:02.896Z,7.08
2023-03-23T16:01:02.934Z,8.27
2023-03-23T16:02:02.989Z,7.19
2023-03-23T16:03:03.008Z,7.75
2023-03-23T16:04:02.960Z,7.75
2023-03-23T16:05:02.985Z,7.05
2023-03-23T16:06:03.052Z,7.39
2023-03-23T16:07:03.084Z,7.33
2023-03-23T16:08:03.154Z,6.61
2023-03-23T16:09:03.200Z,8.35
2023-03-23T16:10:03.223Z,7.08
2023-03-23T16:11:03.305Z,6.58
2023-03-23T16:12:03.371Z,7.51
2023-03-23T16:13:03.485Z,8.75
2023-03-23T16:14:03.549Z,7.99
2023-03-23T16:15:03.582Z,8.70
2023-03-23T16:16:03.646Z,8.86
2023-03-23T16:17:03.769Z,8.83
2023-03-23T16:18:03.957Z,9.21
2023-03-23T16:19:03.878Z,8.42
2023-03-23T16:20:03.893Z,9.41
2023-03-23T16:21:04.011Z,9.23
2023-03-23T16:22:04.085Z,9.20
2023-03-23T16:25:04.250Z,8.11
2023-03-23T16:26:04.347Z,8.90
2023-03-23T16:27:04.380Z,9.59
2023-03-23T16:28:04.459Z,9.42
2023-03-23T16:29:13.900Z,8.99
2023-03-23T16:30:05.623Z,8.70
2023-03-23T16:31:04.580Z,8.53
2023-03-23T16:32:04.604Z,9.81
2023-03-23T16:33:04.625Z,8.69
2023-03-23T16:34:04.653Z,9.16
2023-03-23T16:35:04.668Z,8.99
2023-03-23T16:36:04.706Z,9.15
2023-03-23T16:37:04.707Z,8.64
2023-03-23T16:38:07.762Z,8.76
2023-03-23T16:41:04.787Z,9.20
2023-03-23T16:42:04.812Z,10.07
2023-03-23T16:43:08.816Z,10.64
2023-03-23T16:44:04.867Z,9.07
2023-03-23T16:45:04.887Z,9.25
2023-03-23T16:46:04.945Z,9.36
2023-03-23T16:47:04.951Z,10.23
2023-03-23T16:48:05.009Z,10.21
2023-03-23T16:49:05.031Z,10.31
2023-03-23T16:50:04.987Z,9.06
2023-03-23T16:51:05.034Z,9.22
2023-03-23T16:52:05.081Z,9.16
2023-03-23T16:53:05.057Z,9.23
2023-03-23T16:54:05.111Z,9.28
2023-03-23T16:55:05.153Z,9.45
2023-03-23T16:56:05.164Z,10.14
2023-03-23T16:57:05.270Z,9.20
2023-03-23T17:01:05.381Z,9.49